sensor_id;sensor_type;location;lat;lon;timestamp;P1;durP1;ratioP1;P2;durP2;ratioP2
24685;SDS011;12804;51.176;4.452;2024-03-06T00:02:04;13.70;;;8.48;;
24685;SDS011;12804;51.176;4.452;2024-03-06T00:04:30;14.57;;;8.40;;
24685;SDS011;12804;51.176;4.452;2024-03-06T00:06:56;12.20;;;7.68;;
24685;SDS011;12804;51.176;4.452;2024-03-06T00:09:23;10.40;;;7.53;;
24685;SDS011;12804;51.176;4.452;2024-03-06T00:11:52;11.95;;;7.03;;
24685;SDS011;12804;51.176;4.452;2024-03-06T00:14:18;9.77;;;7.88;;
24685;SDS011;12804;51.176;4.452;2024-03-06T00:16:45;11.25;;;7.35;;
24685;SDS011;12804;51.176;4.452;2024-03-06T00:19:11;10.02;;;7.28;;
24685;SDS011;12804;51.176;4.452;2024-03-06T00:21:37;11.30;;;7.38;;
24685;SDS011;12804;51.176;4.452;2024-03-06T00:24:03;10.75;;;7.45;;
24685;SDS011;12804;51.176;4.452;2024-03-06T00:26:31;8.95;;;7.15;;
24685;SDS011;12804;51.176;4.452;2024-03-06T00:28:57;9.63;;;7.00;;
24685;SDS011;12804;51.176;4.452;2024-03-06T00:31:23;10.10;;;7.45;;
24685;SDS011;12804;51.176;4.452;2024-03-06T00:33:48;12.13;;;8.10;;
24685;SDS011;12804;51.176;4.452;2024-03-06T00:36:14;10.50;;;7.60;;
24685;SDS011;12804;51.176;4.452;2024-03-06T00:38:40;12.25;;;7.95;;
24685;SDS011;12804;51.176;4.452;2024-03-06T00:41:06;11.13;;;7.55;;
24685;SDS011;12804;51.176;4.452;2024-03-06T00:43:32;9.93;;;7.90;;
24685;SDS011;12804;51.176;4.452;2024-03-06T00:45:58;9.02;;;7.07;;
24685;SDS011;12804;51.176;4.452;2024-03-06T00:48:24;11.48;;;7.65;;
24685;SDS011;12804;51.176;4.452;2024-03-06T00:50:53;11.10;;;7.55;;
24685;SDS011;12804;51.176;4.452;2024-03-06T00:53:19;10.48;;;7.95;;
24685;SDS011;12804;51.176;4.452;2024-03-06T00:55:46;10.27;;;7.80;;
24685;SDS011;12804;51.176;4.452;2024-03-06T00:58:12;8.85;;;7.40;;
24685;SDS011;12804;51.176;4.452;2024-03-06T01:00:38;11.80;;;7.05;;
24685;SDS011;12804;51.176;4.452;2024-03-06T01:03:04;11.18;;;6.78;;
24685;SDS011;12804;51.176;4.452;2024-03-06T01:05:31;9.63;;;6.97;;
24685;SDS011;12804;51.176;4.452;2024-03-06T01:07:57;9.77;;;7.35;;
24685;SDS011;12804;51.176;4.452;2024-03-06T01:10:24;10.82;;;7.07;;
24685;SDS011;12804;51.176;4.452;2024-03-06T01:12:50;8.48;;;6.70;;
24685;SDS011;12804;51.176;4.452;2024-03-06T01:15:16;10.20;;;7.00;;
24685;SDS011;12804;51.176;4.452;2024-03-06T01:17:45;8.98;;;6.78;;
24685;SDS011;12804;51.176;4.452;2024-03-06T01:20:11;9.65;;;6.55;;
24685;SDS011;12804;51.176;4.452;2024-03-06T01:22:37;10.45;;;7.55;;
24685;SDS011;12804;51.176;4.452;2024-03-06T01:25:03;11.50;;;7.22;;
24685;SDS011;12804;51.176;4.452;2024-03-06T01:27:30;10.65;;;7.65;;
24685;SDS011;12804;51.176;4.452;2024-03-06T01:29:55;8.15;;;6.82;;
24685;SDS011;12804;51.176;4.452;2024-03-06T01:32:21;11.70;;;6.85;;
24685;SDS011;12804;51.176;4.452;2024-03-06T01:34:47;8.95;;;6.22;;
24685;SDS011;12804;51.176;4.452;2024-03-06T01:37:13;7.50;;;6.10;;
24685;SDS011;12804;51.176;4.452;2024-03-06T01:39:39;11.25;;;7.25;;
24685;SDS011;12804;51.176;4.452;2024-03-06T01:42:05;7.38;;;5.90;;
24685;SDS011;12804;51.176;4.452;2024-03-06T01:44:30;10.20;;;6.53;;
24685;SDS011;12804;51.176;4.452;2024-03-06T01:46:56;8.90;;;6.70;;
24685;SDS011;12804;51.176;4.452;2024-03-06T01:49:22;8.90;;;6.35;;
24685;SDS011;12804;51.176;4.452;2024-03-06T01:51:49;12.02;;;6.43;;
24685;SDS011;12804;51.176;4.452;2024-03-06T01:54:17;9.25;;;6.45;;
24685;SDS011;12804;51.176;4.452;2024-03-06T01:56:47;14.68;;;6.97;;
24685;SDS011;12804;51.176;4.452;2024-03-06T01:59:18;10.13;;;6.53;;
24685;SDS011;12804;51.176;4.452;2024-03-06T02:01:46;10.27;;;6.88;;
24685;SDS011;12804;51.176;4.452;2024-03-06T02:04:12;11.35;;;6.82;;
24685;SDS011;12804;51.176;4.452;2024-03-06T02:06:38;13.55;;;6.72;;
24685;SDS011;12804;51.176;4.452;2024-03-06T02:09:05;11.32;;;6.50;;
24685;SDS011;12804;51.176;4.452;2024-03-06T02:11:32;8.30;;;6.20;;
24685;SDS011;12804;51.176;4.452;2024-03-06T02:13:58;8.73;;;6.88;;
24685;SDS011;12804;51.176;4.452;2024-03-06T02:16:24;9.82;;;6.43;;
24685;SDS011;12804;51.176;4.452;2024-03-06T02:18:51;8.93;;;6.90;;
24685;SDS011;12804;51.176;4.452;2024-03-06T02:21:19;10.73;;;7.20;;
24685;SDS011;12804;51.176;4.452;2024-03-06T02:23:46;8.57;;;6.82;;
24685;SDS011;12804;51.176;4.452;2024-03-06T02:26:11;7.97;;;6.65;;
24685;SDS011;12804;51.176;4.452;2024-03-06T02:28:37;9.77;;;7.25;;
24685;SDS011;12804;51.176;4.452;2024-03-06T02:31:03;9.52;;;6.97;;
24685;SDS011;12804;51.176;4.452;2024-03-06T02:33:32;8.48;;;6.68;;
24685;SDS011;12804;51.176;4.452;2024-03-06T02:35:59;8.85;;;6.63;;
24685;SDS011;12804;51.176;4.452;2024-03-06T02:38:25;10.23;;;6.43;;
24685;SDS011;12804;51.176;4.452;2024-03-06T02:40:51;9.68;;;6.60;;
24685;SDS011;12804;51.176;4.452;2024-03-06T02:43:16;8.73;;;6.65;;
24685;SDS011;12804;51.176;4.452;2024-03-06T02:45:42;8.85;;;7.07;;
24685;SDS011;12804;51.176;4.452;2024-03-06T02:48:08;11.50;;;6.43;;
24685;SDS011;12804;51.176;4.452;2024-03-06T02:50:34;9.40;;;6.88;;
24685;SDS011;12804;51.176;4.452;2024-03-06T02:53:00;9.32;;;6.70;;
24685;SDS011;12804;51.176;4.452;2024-03-06T02:55:26;10.07;;;7.13;;
24685;SDS011;12804;51.176;4.452;2024-03-06T02:57:51;8.23;;;6.70;;
24685;SDS011;12804;51.176;4.452;2024-03-06T03:00:17;10.50;;;7.15;;
24685;SDS011;12804;51.176;4.452;2024-03-06T03:02:44;9.95;;;6.70;;
24685;SDS011;12804;51.176;4.452;2024-03-06T03:05:10;10.38;;;6.97;;
24685;SDS011;12804;51.176;4.452;2024-03-06T03:07:35;12.07;;;7.00;;
24685;SDS011;12804;51.176;4.452;2024-03-06T03:10:01;10.00;;;6.70;;
24685;SDS011;12804;51.176;4.452;2024-03-06T03:12:31;7.72;;;6.30;;
24685;SDS011;12804;51.176;4.452;2024-03-06T03:14:57;10.93;;;7.43;;
24685;SDS011;12804;51.176;4.452;2024-03-06T03:17:22;10.35;;;7.00;;
24685;SDS011;12804;51.176;4.452;2024-03-06T03:19:48;8.93;;;6.47;;
24685;SDS011;12804;51.176;4.452;2024-03-06T03:22:14;9.77;;;7.18;;
24685;SDS011;12804;51.176;4.452;2024-03-06T03:24:43;11.95;;;7.28;;
24685;SDS011;12804;51.176;4.452;2024-03-06T03:27:08;8.20;;;7.05;;
24685;SDS011;12804;51.176;4.452;2024-03-06T03:29:37;10.55;;;6.90;;
24685;SDS011;12804;51.176;4.452;2024-03-06T03:32:03;9.25;;;7.07;;
24685;SDS011;12804;51.176;4.452;2024-03-06T03:34:29;9.15;;;6.63;;
24685;SDS011;12804;51.176;4.452;2024-03-06T03:36:55;10.73;;;7.05;;
24685;SDS011;12804;51.176;4.452;2024-03-06T03:39:22;11.88;;;7.30;;
24685;SDS011;12804;51.176;4.452;2024-03-06T03:41:50;11.77;;;7.32;;
24685;SDS011;12804;51.176;4.452;2024-03-06T03:44:16;10.18;;;7.25;;
24685;SDS011;12804;51.176;4.452;2024-03-06T03:46:44;8.63;;;6.95;;
24685;SDS011;12804;51.176;4.452;2024-03-06T03:49:10;11.00;;;7.28;;
24685;SDS011;12804;51.176;4.452;2024-03-06T03:51:39;10.40;;;7.32;;
24685;SDS011;12804;51.176;4.452;2024-03-06T03:54:06;10.15;;;6.88;;
24685;SDS011;12804;51.176;4.452;2024-03-06T03:56:32;10.18;;;7.40;;
24685;SDS011;12804;51.176;4.452;2024-03-06T03:58:58;11.10;;;7.20;;
24685;SDS011;12804;51.176;4.452;2024-03-06T04:01:24;12.95;;;7.93;;
24685;SDS011;12804;51.176;4.452;2024-03-06T04:03:51;14.18;;;7.70;;
24685;SDS011;12804;51.176;4.452;2024-03-06T04:06:17;12.07;;;7.80;;
24685;SDS011;12804;51.176;4.452;2024-03-06T04:08:43;12.25;;;8.20;;
24685;SDS011;12804;51.176;4.452;2024-03-06T04:11:09;10.65;;;7.88;;
24685;SDS011;12804;51.176;4.452;2024-03-06T04:13:36;12.23;;;8.13;;
24685;SDS011;12804;51.176;4.452;2024-03-06T04:16:05;14.63;;;8.25;;
24685;SDS011;12804;51.176;4.452;2024-03-06T04:18:31;14.75;;;8.85;;
24685;SDS011;12804;51.176;4.452;2024-03-06T04:21:04;12.30;;;8.77;;
24685;SDS011;12804;51.176;4.452;2024-03-06T04:23:31;13.40;;;8.60;;
24685;SDS011;12804;51.176;4.452;2024-03-06T04:25:58;14.27;;;8.95;;
24685;SDS011;12804;51.176;4.452;2024-03-06T04:28:25;14.68;;;8.82;;
24685;SDS011;12804;51.176;4.452;2024-03-06T04:30:50;12.35;;;8.60;;
24685;SDS011;12804;51.176;4.452;2024-03-06T04:33:17;13.93;;;9.07;;
24685;SDS011;12804;51.176;4.452;2024-03-06T04:35:50;14.25;;;8.43;;
24685;SDS011;12804;51.176;4.452;2024-03-06T04:38:17;15.10;;;9.98;;
24685;SDS011;12804;51.176;4.452;2024-03-06T04:40:43;15.48;;;9.95;;
24685;SDS011;12804;51.176;4.452;2024-03-06T04:43:10;15.68;;;10.07;;
24685;SDS011;12804;51.176;4.452;2024-03-06T04:45:36;15.45;;;9.75;;
24685;SDS011;12804;51.176;4.452;2024-03-06T04:48:02;14.45;;;9.48;;
24685;SDS011;12804;51.176;4.452;2024-03-06T04:50:28;13.85;;;9.63;;
24685;SDS011;12804;51.176;4.452;2024-03-06T04:52:54;14.90;;;9.60;;
24685;SDS011;12804;51.176;4.452;2024-03-06T04:55:21;14.48;;;9.20;;
24685;SDS011;12804;51.176;4.452;2024-03-06T04:57:48;14.90;;;9.27;;
24685;SDS011;12804;51.176;4.452;2024-03-06T05:00:14;15.07;;;9.63;;
24685;SDS011;12804;51.176;4.452;2024-03-06T05:02:40;13.85;;;8.70;;
24685;SDS011;12804;51.176;4.452;2024-03-06T05:05:07;13.65;;;9.05;;
24685;SDS011;12804;51.176;4.452;2024-03-06T05:07:33;15.23;;;9.90;;
24685;SDS011;12804;51.176;4.452;2024-03-06T05:09:59;15.90;;;9.88;;
24685;SDS011;12804;51.176;4.452;2024-03-06T05:12:26;13.45;;;9.05;;
24685;SDS011;12804;51.176;4.452;2024-03-06T05:14:52;12.93;;;9.40;;
24685;SDS011;12804;51.176;4.452;2024-03-06T05:17:18;15.80;;;9.63;;
24685;SDS011;12804;51.176;4.452;2024-03-06T05:19:48;15.88;;;9.63;;
24685;SDS011;12804;51.176;4.452;2024-03-06T05:22:14;15.88;;;9.40;;
24685;SDS011;12804;51.176;4.452;2024-03-06T05:24:41;14.57;;;9.88;;
24685;SDS011;12804;51.176;4.452;2024-03-06T05:27:08;13.23;;;9.73;;
24685;SDS011;12804;51.176;4.452;2024-03-06T05:29:45;12.23;;;8.82;;
24685;SDS011;12804;51.176;4.452;2024-03-06T05:32:11;14.68;;;9.82;;
24685;SDS011;12804;51.176;4.452;2024-03-06T05:34:37;15.20;;;9.73;;
24685;SDS011;12804;51.176;4.452;2024-03-06T05:37:03;15.38;;;9.85;;
24685;SDS011;12804;51.176;4.452;2024-03-06T05:39:32;16.63;;;9.48;;
24685;SDS011;12804;51.176;4.452;2024-03-06T05:42:05;14.68;;;9.65;;
24685;SDS011;12804;51.176;4.452;2024-03-06T05:44:31;15.93;;;10.13;;
24685;SDS011;12804;51.176;4.452;2024-03-06T05:46:58;15.52;;;10.38;;
24685;SDS011;12804;51.176;4.452;2024-03-06T05:49:25;19.95;;;11.43;;
24685;SDS011;12804;51.176;4.452;2024-03-06T05:51:50;15.55;;;10.60;;
24685;SDS011;12804;51.176;4.452;2024-03-06T05:54:17;19.70;;;10.93;;
24685;SDS011;12804;51.176;4.452;2024-03-06T05:56:44;17.50;;;11.10;;
24685;SDS011;12804;51.176;4.452;2024-03-06T05:59:10;15.50;;;10.05;;
24685;SDS011;12804;51.176;4.452;2024-03-06T06:01:36;17.98;;;10.77;;
24685;SDS011;12804;51.176;4.452;2024-03-06T06:04:01;20.52;;;11.15;;
24685;SDS011;12804;51.176;4.452;2024-03-06T06:06:31;16.90;;;10.68;;
24685;SDS011;12804;51.176;4.452;2024-03-06T06:08:57;20.33;;;12.00;;
24685;SDS011;12804;51.176;4.452;2024-03-06T06:11:22;20.23;;;11.88;;
24685;SDS011;12804;51.176;4.452;2024-03-06T06:13:48;21.33;;;12.48;;
24685;SDS011;12804;51.176;4.452;2024-03-06T06:16:14;23.17;;;12.73;;
24685;SDS011;12804;51.176;4.452;2024-03-06T06:18:40;23.20;;;13.93;;
24685;SDS011;12804;51.176;4.452;2024-03-06T06:21:07;22.77;;;12.80;;
24685;SDS011;12804;51.176;4.452;2024-03-06T06:23:33;19.58;;;12.35;;
24685;SDS011;12804;51.176;4.452;2024-03-06T06:25:59;21.08;;;13.45;;
24685;SDS011;12804;51.176;4.452;2024-03-06T06:28:25;22.42;;;13.20;;
24685;SDS011;12804;51.176;4.452;2024-03-06T06:30:51;21.75;;;13.15;;
24685;SDS011;12804;51.176;4.452;2024-03-06T06:33:20;24.95;;;14.18;;
24685;SDS011;12804;51.176;4.452;2024-03-06T06:35:46;20.83;;;13.27;;
24685;SDS011;12804;51.176;4.452;2024-03-06T06:38:13;20.08;;;13.18;;
24685;SDS011;12804;51.176;4.452;2024-03-06T06:40:39;22.88;;;14.38;;
24685;SDS011;12804;51.176;4.452;2024-03-06T06:43:05;20.00;;;13.05;;
24685;SDS011;12804;51.176;4.452;2024-03-06T06:45:32;19.85;;;13.15;;
24685;SDS011;12804;51.176;4.452;2024-03-06T06:47:58;19.90;;;12.82;;
24685;SDS011;12804;51.176;4.452;2024-03-06T06:50:24;22.38;;;13.73;;
24685;SDS011;12804;51.176;4.452;2024-03-06T06:52:52;18.25;;;12.57;;
24685;SDS011;12804;51.176;4.452;2024-03-06T06:55:18;24.02;;;13.85;;
24685;SDS011;12804;51.176;4.452;2024-03-06T06:57:48;20.17;;;13.55;;
24685;SDS011;12804;51.176;4.452;2024-03-06T07:00:14;19.13;;;12.63;;
24685;SDS011;12804;51.176;4.452;2024-03-06T07:02:43;20.42;;;13.45;;
24685;SDS011;12804;51.176;4.452;2024-03-06T07:05:10;18.17;;;12.35;;
24685;SDS011;12804;51.176;4.452;2024-03-06T07:07:36;19.58;;;12.05;;
24685;SDS011;12804;51.176;4.452;2024-03-06T07:10:03;19.35;;;12.50;;
24685;SDS011;12804;51.176;4.452;2024-03-06T07:12:30;19.25;;;12.63;;
24685;SDS011;12804;51.176;4.452;2024-03-06T07:14:56;20.70;;;13.25;;
24685;SDS011;12804;51.176;4.452;2024-03-06T07:17:22;19.90;;;12.73;;
24685;SDS011;12804;51.176;4.452;2024-03-06T07:19:48;19.83;;;12.90;;
24685;SDS011;12804;51.176;4.452;2024-03-06T07:22:15;15.93;;;9.88;;
24685;SDS011;12804;51.176;4.452;2024-03-06T07:24:41;23.50;;;13.63;;
24685;SDS011;12804;51.176;4.452;2024-03-06T07:27:07;20.45;;;12.60;;
24685;SDS011;12804;51.176;4.452;2024-03-06T07:29:34;19.75;;;12.70;;
24685;SDS011;12804;51.176;4.452;2024-03-06T07:32:00;19.17;;;11.73;;
24685;SDS011;12804;51.176;4.452;2024-03-06T07:34:26;17.08;;;11.68;;
24685;SDS011;12804;51.176;4.452;2024-03-06T07:36:52;17.95;;;11.80;;
24685;SDS011;12804;51.176;4.452;2024-03-06T07:39:21;16.63;;;11.20;;
24685;SDS011;12804;51.176;4.452;2024-03-06T07:41:47;16.40;;;10.60;;
24685;SDS011;12804;51.176;4.452;2024-03-06T07:44:13;16.13;;;10.93;;
24685;SDS011;12804;51.176;4.452;2024-03-06T07:46:39;15.60;;;10.27;;
24685;SDS011;12804;51.176;4.452;2024-03-06T07:49:04;17.70;;;10.52;;
24685;SDS011;12804;51.176;4.452;2024-03-06T07:51:31;14.82;;;9.68;;
24685;SDS011;12804;51.176;4.452;2024-03-06T07:53:57;13.32;;;9.18;;
24685;SDS011;12804;51.176;4.452;2024-03-06T07:56:26;15.45;;;9.65;;
24685;SDS011;12804;51.176;4.452;2024-03-06T07:58:53;13.57;;;9.45;;
24685;SDS011;12804;51.176;4.452;2024-03-06T08:01:19;12.50;;;8.88;;
24685;SDS011;12804;51.176;4.452;2024-03-06T08:03:46;13.50;;;9.20;;
24685;SDS011;12804;51.176;4.452;2024-03-06T08:06:12;11.98;;;8.32;;
24685;SDS011;12804;51.176;4.452;2024-03-06T08:08:41;11.52;;;8.43;;
24685;SDS011;12804;51.176;4.452;2024-03-06T08:11:12;12.73;;;8.60;;
24685;SDS011;12804;51.176;4.452;2024-03-06T08:13:39;11.85;;;8.20;;
24685;SDS011;12804;51.176;4.452;2024-03-06T08:16:05;12.48;;;8.38;;
24685;SDS011;12804;51.176;4.452;2024-03-06T08:18:33;13.05;;;8.45;;
24685;SDS011;12804;51.176;4.452;2024-03-06T08:21:00;10.70;;;8.18;;
24685;SDS011;12804;51.176;4.452;2024-03-06T08:23:26;13.40;;;8.23;;
24685;SDS011;12804;51.176;4.452;2024-03-06T08:25:52;12.02;;;8.15;;
24685;SDS011;12804;51.176;4.452;2024-03-06T08:28:18;12.38;;;8.50;;
24685;SDS011;12804;51.176;4.452;2024-03-06T08:30:44;11.73;;;8.52;;
24685;SDS011;12804;51.176;4.452;2024-03-06T08:33:10;12.50;;;8.85;;
24685;SDS011;12804;51.176;4.452;2024-03-06T08:35:36;13.00;;;8.30;;
24685;SDS011;12804;51.176;4.452;2024-03-06T08:38:02;17.35;;;8.55;;
24685;SDS011;12804;51.176;4.452;2024-03-06T08:40:29;13.35;;;8.18;;
24685;SDS011;12804;51.176;4.452;2024-03-06T08:42:55;13.73;;;8.30;;
24685;SDS011;12804;51.176;4.452;2024-03-06T08:45:21;13.52;;;8.32;;
24685;SDS011;12804;51.176;4.452;2024-03-06T08:47:48;12.50;;;8.32;;
24685;SDS011;12804;51.176;4.452;2024-03-06T08:50:14;13.25;;;8.25;;
24685;SDS011;12804;51.176;4.452;2024-03-06T08:52:41;10.85;;;7.55;;
24685;SDS011;12804;51.176;4.452;2024-03-06T08:55:07;11.15;;;8.20;;
24685;SDS011;12804;51.176;4.452;2024-03-06T08:57:34;11.35;;;7.68;;
24685;SDS011;12804;51.176;4.452;2024-03-06T09:00:01;12.32;;;7.53;;
24685;SDS011;12804;51.176;4.452;2024-03-06T09:02:27;12.25;;;7.78;;
24685;SDS011;12804;51.176;4.452;2024-03-06T09:04:53;9.88;;;7.25;;
24685;SDS011;12804;51.176;4.452;2024-03-06T09:07:19;9.90;;;6.30;;
24685;SDS011;12804;51.176;4.452;2024-03-06T09:09:49;10.60;;;6.70;;
24685;SDS011;12804;51.176;4.452;2024-03-06T09:12:15;8.63;;;6.30;;
24685;SDS011;12804;51.176;4.452;2024-03-06T09:14:41;11.90;;;6.82;;
24685;SDS011;12804;51.176;4.452;2024-03-06T09:17:07;9.40;;;6.63;;
24685;SDS011;12804;51.176;4.452;2024-03-06T09:19:38;8.07;;;6.03;;
24685;SDS011;12804;51.176;4.452;2024-03-06T09:22:04;9.07;;;6.38;;
24685;SDS011;12804;51.176;4.452;2024-03-06T09:24:30;9.48;;;6.45;;
24685;SDS011;12804;51.176;4.452;2024-03-06T09:26:56;10.07;;;6.35;;
24685;SDS011;12804;51.176;4.452;2024-03-06T09:29:21;9.93;;;6.22;;
24685;SDS011;12804;51.176;4.452;2024-03-06T09:31:47;8.68;;;6.38;;
24685;SDS011;12804;51.176;4.452;2024-03-06T09:34:14;8.18;;;5.97;;
24685;SDS011;12804;51.176;4.452;2024-03-06T09:36:40;10.93;;;6.80;;
24685;SDS011;12804;51.176;4.452;2024-03-06T09:39:16;11.80;;;6.70;;
24685;SDS011;12804;51.176;4.452;2024-03-06T09:41:51;9.55;;;6.65;;
24685;SDS011;12804;51.176;4.452;2024-03-06T09:44:19;9.32;;;6.35;;
24685;SDS011;12804;51.176;4.452;2024-03-06T09:46:47;9.88;;;6.53;;
24685;SDS011;12804;51.176;4.452;2024-03-06T09:49:22;9.60;;;6.80;;
24685;SDS011;12804;51.176;4.452;2024-03-06T09:51:48;9.90;;;6.53;;
24685;SDS011;12804;51.176;4.452;2024-03-06T09:54:23;10.77;;;6.22;;
24685;SDS011;12804;51.176;4.452;2024-03-06T09:56:52;10.50;;;6.40;;
24685;SDS011;12804;51.176;4.452;2024-03-06T09:59:20;10.45;;;6.63;;
24685;SDS011;12804;51.176;4.452;2024-03-06T10:04:21;7.65;;;5.88;;
24685;SDS011;12804;51.176;4.452;2024-03-06T10:06:50;8.52;;;5.68;;
24685;SDS011;12804;51.176;4.452;2024-03-06T10:09:20;8.65;;;6.25;;
24685;SDS011;12804;51.176;4.452;2024-03-06T10:11:46;10.10;;;5.90;;
24685;SDS011;12804;51.176;4.452;2024-03-06T10:14:13;9.82;;;6.28;;
24685;SDS011;12804;51.176;4.452;2024-03-06T10:16:52;10.30;;;5.90;;
24685;SDS011;12804;51.176;4.452;2024-03-06T10:19:23;9.20;;;6.47;;
24685;SDS011;12804;51.176;4.452;2024-03-06T10:21:50;11.93;;;6.63;;
24685;SDS011;12804;51.176;4.452;2024-03-06T10:24:20;13.80;;;7.93;;
24685;SDS011;12804;51.176;4.452;2024-03-06T10:26:49;13.70;;;7.65;;
24685;SDS011;12804;51.176;4.452;2024-03-06T10:29:19;10.57;;;6.68;;
24685;SDS011;12804;51.176;4.452;2024-03-06T10:34:22;10.95;;;6.47;;
24685;SDS011;12804;51.176;4.452;2024-03-06T10:36:58;10.90;;;5.68;;
24685;SDS011;12804;51.176;4.452;2024-03-06T10:39:25;10.45;;;5.53;;
24685;SDS011;12804;51.176;4.452;2024-03-06T10:41:52;13.30;;;5.78;;
24685;SDS011;12804;51.176;4.452;2024-03-06T10:44:23;9.75;;;5.97;;
24685;SDS011;12804;51.176;4.452;2024-03-06T10:47:06;10.80;;;6.78;;
24685;SDS011;12804;51.176;4.452;2024-03-06T10:49:34;13.05;;;7.05;;
24685;SDS011;12804;51.176;4.452;2024-03-06T10:52:02;10.75;;;6.28;;
24685;SDS011;12804;51.176;4.452;2024-03-06T10:54:32;10.90;;;6.30;;
24685;SDS011;12804;51.176;4.452;2024-03-06T10:57:07;8.82;;;5.40;;
24685;SDS011;12804;51.176;4.452;2024-03-06T10:59:35;9.48;;;5.57;;
24685;SDS011;12804;51.176;4.452;2024-03-06T11:02:01;8.18;;;5.10;;
24685;SDS011;12804;51.176;4.452;2024-03-06T11:04:28;5.50;;;3.97;;
24685;SDS011;12804;51.176;4.452;2024-03-06T11:06:58;5.85;;;4.43;;
24685;SDS011;12804;51.176;4.452;2024-03-06T11:09:34;10.07;;;4.57;;
24685;SDS011;12804;51.176;4.452;2024-03-06T11:12:01;7.90;;;4.35;;
24685;SDS011;12804;51.176;4.452;2024-03-06T11:14:29;6.50;;;4.90;;
24685;SDS011;12804;51.176;4.452;2024-03-06T11:17:03;7.72;;;5.20;;
24685;SDS011;12804;51.176;4.452;2024-03-06T11:28:22;6.85;;;4.03;;
24685;SDS011;12804;51.176;4.452;2024-03-06T11:33:23;6.88;;;4.80;;
24685;SDS011;12804;51.176;4.452;2024-03-06T11:41:22;3.88;;;3.00;;
24685;SDS011;12804;51.176;4.452;2024-03-06T11:43:50;5.32;;;3.70;;
24685;SDS011;12804;51.176;4.452;2024-03-06T11:46:18;3.20;;;2.70;;
24685;SDS011;12804;51.176;4.452;2024-03-06T11:48:55;5.78;;;3.00;;
24685;SDS011;12804;51.176;4.452;2024-03-06T11:51:23;4.43;;;2.80;;
24685;SDS011;12804;51.176;4.452;2024-03-06T11:53:51;4.40;;;3.30;;
24685;SDS011;12804;51.176;4.452;2024-03-06T11:56:19;4.25;;;2.88;;
24685;SDS011;12804;51.176;4.452;2024-03-06T11:58:45;4.10;;;2.78;;
24685;SDS011;12804;51.176;4.452;2024-03-06T12:01:12;4.93;;;3.47;;
24685;SDS011;12804;51.176;4.452;2024-03-06T12:03:39;4.93;;;3.45;;
24685;SDS011;12804;51.176;4.452;2024-03-06T12:06:06;7.45;;;5.45;;
24685;SDS011;12804;51.176;4.452;2024-03-06T12:08:33;6.10;;;4.55;;
24685;SDS011;12804;51.176;4.452;2024-03-06T12:11:02;5.55;;;2.95;;
24685;SDS011;12804;51.176;4.452;2024-03-06T12:13:30;4.20;;;2.83;;
24685;SDS011;12804;51.176;4.452;2024-03-06T12:15:56;4.80;;;3.67;;
24685;SDS011;12804;51.176;4.452;2024-03-06T12:18:23;6.18;;;4.05;;
24685;SDS011;12804;51.176;4.452;2024-03-06T12:20:50;6.05;;;4.00;;
24685;SDS011;12804;51.176;4.452;2024-03-06T12:23:23;4.03;;;2.97;;
24685;SDS011;12804;51.176;4.452;2024-03-06T12:26:01;4.22;;;3.80;;
24685;SDS011;12804;51.176;4.452;2024-03-06T12:28:36;6.65;;;3.58;;
24685;SDS011;12804;51.176;4.452;2024-03-06T12:31:03;5.43;;;3.38;;
24685;SDS011;12804;51.176;4.452;2024-03-06T12:33:30;4.32;;;2.90;;
24685;SDS011;12804;51.176;4.452;2024-03-06T12:36:01;5.43;;;3.47;;
24685;SDS011;12804;51.176;4.452;2024-03-06T12:38:28;3.88;;;2.90;;
24685;SDS011;12804;51.176;4.452;2024-03-06T12:40:54;5.65;;;2.33;;
24685;SDS011;12804;51.176;4.452;2024-03-06T12:43:20;4.70;;;2.90;;
24685;SDS011;12804;51.176;4.452;2024-03-06T12:45:46;2.95;;;2.20;;
24685;SDS011;12804;51.176;4.452;2024-03-06T12:48:12;3.78;;;2.92;;
24685;SDS011;12804;51.176;4.452;2024-03-06T12:50:38;3.20;;;2.53;;
24685;SDS011;12804;51.176;4.452;2024-03-06T12:53:05;3.38;;;2.60;;
24685;SDS011;12804;51.176;4.452;2024-03-06T12:55:31;3.15;;;2.10;;
24685;SDS011;12804;51.176;4.452;2024-03-06T12:57:57;2.75;;;2.20;;
24685;SDS011;12804;51.176;4.452;2024-03-06T13:00:22;3.22;;;2.20;;
24685;SDS011;12804;51.176;4.452;2024-03-06T13:02:49;4.18;;;2.75;;
24685;SDS011;12804;51.176;4.452;2024-03-06T13:05:18;4.13;;;2.58;;
24685;SDS011;12804;51.176;4.452;2024-03-06T13:07:44;4.53;;;2.63;;
24685;SDS011;12804;51.176;4.452;2024-03-06T13:10:11;3.88;;;2.20;;
24685;SDS011;12804;51.176;4.452;2024-03-06T13:12:38;4.10;;;2.75;;
24685;SDS011;12804;51.176;4.452;2024-03-06T13:15:04;3.83;;;2.47;;
24685;SDS011;12804;51.176;4.452;2024-03-06T13:17:32;3.85;;;2.83;;
24685;SDS011;12804;51.176;4.452;2024-03-06T13:19:59;3.97;;;2.10;;
24685;SDS011;12804;51.176;4.452;2024-03-06T13:22:25;3.47;;;2.35;;
24685;SDS011;12804;51.176;4.452;2024-03-06T13:24:50;4.07;;;2.17;;
24685;SDS011;12804;51.176;4.452;2024-03-06T13:27:16;3.72;;;2.17;;
24685;SDS011;12804;51.176;4.452;2024-03-06T13:29:43;3.22;;;2.00;;
24685;SDS011;12804;51.176;4.452;2024-03-06T13:32:08;3.97;;;2.50;;
24685;SDS011;12804;51.176;4.452;2024-03-06T13:34:34;2.40;;;2.20;;
24685;SDS011;12804;51.176;4.452;2024-03-06T13:37:00;3.55;;;2.30;;
24685;SDS011;12804;51.176;4.452;2024-03-06T13:39:26;2.92;;;2.28;;
24685;SDS011;12804;51.176;4.452;2024-03-06T13:41:52;2.38;;;2.08;;
24685;SDS011;12804;51.176;4.452;2024-03-06T13:44:18;3.28;;;2.20;;
24685;SDS011;12804;51.176;4.452;2024-03-06T13:46:44;4.97;;;2.17;;
24685;SDS011;12804;51.176;4.452;2024-03-06T13:49:24;2.70;;;1.98;;
24685;SDS011;12804;51.176;4.452;2024-03-06T13:52:00;2.50;;;2.20;;
24685;SDS011;12804;51.176;4.452;2024-03-06T13:54:26;1.90;;;1.65;;
24685;SDS011;12804;51.176;4.452;2024-03-06T13:56:52;2.72;;;1.70;;
24685;SDS011;12804;51.176;4.452;2024-03-06T13:59:26;3.17;;;1.90;;
24685;SDS011;12804;51.176;4.452;2024-03-06T14:01:58;2.47;;;1.85;;
24685;SDS011;12804;51.176;4.452;2024-03-06T14:04:28;3.38;;;1.65;;
24685;SDS011;12804;51.176;4.452;2024-03-06T14:06:54;2.90;;;1.30;;
24685;SDS011;12804;51.176;4.452;2024-03-06T14:09:22;2.40;;;1.70;;
24685;SDS011;12804;51.176;4.452;2024-03-06T14:11:51;2.15;;;1.60;;
24685;SDS011;12804;51.176;4.452;2024-03-06T14:14:18;1.88;;;1.50;;
24685;SDS011;12804;51.176;4.452;2024-03-06T14:16:45;3.03;;;1.40;;
24685;SDS011;12804;51.176;4.452;2024-03-06T14:19:11;1.65;;;1.23;;
24685;SDS011;12804;51.176;4.452;2024-03-06T14:21:37;2.08;;;1.52;;
24685;SDS011;12804;51.176;4.452;2024-03-06T14:24:03;2.85;;;1.63;;
24685;SDS011;12804;51.176;4.452;2024-03-06T14:26:33;2.70;;;1.80;;
24685;SDS011;12804;51.176;4.452;2024-03-06T14:28:59;2.15;;;1.50;;
24685;SDS011;12804;51.176;4.452;2024-03-06T14:31:27;1.80;;;1.48;;
24685;SDS011;12804;51.176;4.452;2024-03-06T14:33:53;1.98;;;1.52;;
24685;SDS011;12804;51.176;4.452;2024-03-06T14:36:19;1.80;;;1.30;;
24685;SDS011;12804;51.176;4.452;2024-03-06T14:38:47;2.28;;;1.60;;
24685;SDS011;12804;51.176;4.452;2024-03-06T14:41:13;2.72;;;1.88;;
24685;SDS011;12804;51.176;4.452;2024-03-06T14:43:39;3.17;;;1.67;;
24685;SDS011;12804;51.176;4.452;2024-03-06T14:46:05;2.15;;;1.45;;
24685;SDS011;12804;51.176;4.452;2024-03-06T14:48:31;3.70;;;1.90;;
24685;SDS011;12804;51.176;4.452;2024-03-06T14:50:59;2.83;;;2.30;;
24685;SDS011;12804;51.176;4.452;2024-03-06T14:53:25;2.20;;;1.55;;
24685;SDS011;12804;51.176;4.452;2024-03-06T14:55:51;5.03;;;2.10;;
24685;SDS011;12804;51.176;4.452;2024-03-06T14:58:18;3.83;;;1.77;;
24685;SDS011;12804;51.176;4.452;2024-03-06T15:00:44;2.80;;;1.75;;